createdAt,value
2023-03-07T00:00:51.443Z,99335.03
2023-03-07T00:03:18.326Z,99333.28
2023-03-07T00:05:45.235Z,99330.72
2023-03-07T00:08:12.897Z,99337.63
2023-03-07T00:10:39.497Z,99332.44
2023-03-07T00:13:06.289Z,99328.16
2023-03-07T00:15:33.041Z,99320.41
2023-03-07T00:17:59.738Z,99313.59
2023-03-07T00:20:26.757Z,99313.63
2023-03-07T00:22:53.345Z,99317.94
2023-03-07T00:25:20.219Z,99314.47
2023-03-07T00:27:46.920Z,99313.63
2023-03-07T00:30:14.271Z,99307.56
2023-03-07T00:32:40.950Z,99312.78
2023-03-07T00:35:08.187Z,99309.34
2023-03-07T00:37:34.870Z,99304.19
2023-03-07T00:40:01.477Z,99297.31
2023-03-07T00:42:28.387Z,99281.81
2023-03-07T00:44:55.056Z,99284.41
2023-03-07T00:47:23.831Z,99274.94
2023-03-07T00:49:50.667Z,99262.00
2023-03-07T00:52:20.674Z,99252.53
2023-03-07T00:54:49.424Z,99248.34
2023-03-07T00:57:16.254Z,99241.44
2023-03-07T00:59:45.714Z,99237.16
2023-03-07T01:02:12.310Z,99223.38
2023-03-07T01:04:38.994Z,99224.31
2023-03-07T01:07:06.063Z,99219.19
2023-03-07T01:09:32.690Z,99210.16
2023-03-07T01:11:59.288Z,99206.81
2023-03-07T01:14:26.051Z,99193.91
2023-03-07T01:16:52.695Z,99192.38
2023-03-07T01:19:19.389Z,99187.22
2023-03-07T01:21:45.968Z,99177.00
2023-03-07T01:24:14.422Z,99172.63
2023-03-07T01:26:41.304Z,99174.41
2023-03-07T01:29:08.704Z,99165.00
2023-03-07T01:31:35.693Z,99163.38
2023-03-07T01:34:02.846Z,99160.75
2023-03-07T01:36:32.953Z,99156.50
2023-03-07T01:39:06.757Z,99141.84
2023-03-07T01:41:35.036Z,99139.28
2023-03-07T01:44:05.662Z,99133.25
2023-03-07T01:46:44.934Z,99129.00
2023-03-07T01:49:16.575Z,99116.94
2023-03-07T01:51:46.514Z,99116.94
2023-03-07T01:54:16.577Z,99113.50
2023-03-07T01:56:44.122Z,99107.50
2023-03-07T01:59:11.489Z,99098.84
2023-03-07T02:01:38.352Z,99086.81
2023-03-07T02:04:36.845Z,99070.41
2023-03-07T02:07:03.582Z,99066.06
2023-03-07T02:09:31.440Z,99061.78
2023-03-07T02:11:59.211Z,99056.59
2023-03-07T02:14:25.842Z,99053.09
2023-03-07T02:16:52.618Z,99040.13
2023-03-07T02:19:37.929Z,99038.44
2023-03-07T02:22:11.418Z,99031.53
2023-03-07T02:24:53.505Z,99018.59
2023-03-07T02:27:20.619Z,99019.47
2023-03-07T02:29:47.327Z,99006.53
2023-03-07T02:32:14.304Z,99009.13
2023-03-07T02:34:40.930Z,98997.94
2023-03-07T02:37:11.481Z,98992.75
2023-03-07T02:39:41.656Z,98987.59
2023-03-07T02:42:11.488Z,98976.34
2023-03-07T02:44:38.247Z,98967.75
2023-03-07T02:47:08.869Z,98970.31
2023-03-07T02:49:36.315Z,98966.00
2023-03-07T02:52:03.460Z,98958.25
2023-03-07T02:54:30.097Z,98947.88
2023-03-07T02:56:56.798Z,98941.84
2023-03-07T02:59:23.433Z,98934.06
2023-03-07T03:01:50.136Z,98932.38
2023-03-07T03:04:16.808Z,98928.06
2023-03-07T03:06:43.398Z,98921.13
2023-03-07T03:09:09.987Z,98914.25
2023-03-07T03:11:36.623Z,98909.94
2023-03-07T03:14:03.762Z,98909.91
2023-03-07T03:16:30.524Z,98897.81
2023-03-07T03:18:57.310Z,98896.06
2023-03-07T03:21:24.077Z,98882.25
2023-03-07T03:23:51.284Z,98875.38
2023-03-07T03:26:21.090Z,98876.22
2023-03-07T03:28:54.306Z,98858.09
2023-03-07T03:31:21.107Z,98856.38
2023-03-07T03:33:49.404Z,98847.69
2023-03-07T03:36:18.677Z,98836.44
2023-03-07T03:38:45.307Z,98834.75
2023-03-07T03:41:15.716Z,98822.66
2023-03-07T03:43:42.654Z,98826.94
2023-03-07T03:46:09.578Z,98822.63
2023-03-07T03:48:36.236Z,98810.53
2023-03-07T03:51:08.363Z,98798.41
2023-03-07T03:53:37.041Z,98798.38
2023-03-07T03:56:15.284Z,98796.69
2023-03-07T03:58:41.992Z,98790.63
2023-03-07T04:01:10.924Z,98789.72
2023-03-07T04:03:45.064Z,98785.41
2023-03-07T04:06:23.910Z,98765.53
2023-03-07T04:08:51.779Z,98766.41
2023-03-07T04:11:19.377Z,98765.56
2023-03-07T04:13:46.079Z,98754.25
2023-03-07T04:16:13.727Z,98750.78
2023-03-07T04:18:40.588Z,98742.16
2023-03-07T04:21:07.524Z,98742.97
2023-03-07T04:23:34.612Z,98747.28
2023-03-07T04:26:03.255Z,98730.03
2023-03-07T04:28:45.101Z,98731.66
2023-03-07T04:31:13.554Z,98725.59
2023-03-07T04:33:40.460Z,98721.25
2023-03-07T04:36:07.505Z,98716.91
2023-03-07T04:38:34.152Z,98706.56
2023-03-07T04:41:00.986Z,98707.38
2023-03-07T04:43:27.628Z,98687.53
2023-03-07T04:45:54.354Z,98689.22
2023-03-07T04:48:21.374Z,98675.34
2023-03-07T04:50:52.248Z,98676.19
2023-03-07T04:53:19.496Z,98661.53
2023-03-07T04:55:48.608Z,98659.75
2023-03-07T04:58:15.226Z,98645.91
2023-03-07T05:00:44.848Z,98637.22
2023-03-07T05:03:13.017Z,98638.06
2023-03-07T05:05:39.838Z,98631.13
2023-03-07T05:10:47.442Z,98609.44
2023-03-07T05:13:14.181Z,98608.66
2023-03-07T05:15:40.832Z,98604.16
2023-03-07T05:18:07.474Z,98602.47
2023-03-07T05:20:34.738Z,98595.47
2023-03-07T05:23:01.323Z,98598.06
2023-03-07T05:25:28.622Z,98587.59
2023-03-07T05:27:55.239Z,98581.56
2023-03-07T05:30:22.851Z,98578.03
2023-03-07T05:32:51.298Z,98576.34
2023-03-07T05:35:18.135Z,98578.03
2023-03-07T05:37:44.704Z,98572.84
2023-03-07T05:40:13.057Z,98564.13
2023-03-07T05:42:39.643Z,98562.34
2023-03-07T05:45:07.039Z,98565.81
2023-03-07T05:47:33.736Z,98557.97
2023-03-07T05:50:00.429Z,98555.47
2023-03-07T05:52:27.916Z,98557.16
2023-03-07T05:54:54.973Z,98558.91
2023-03-07T05:57:22.477Z,98551.88
2023-03-07T05:59:49.109Z,98549.38
2023-03-07T06:02:15.781Z,98559.69
2023-03-07T06:04:42.420Z,98552.75
2023-03-07T06:07:09.064Z,98547.53
2023-03-07T06:09:35.661Z,98549.28
2023-03-07T06:12:02.243Z,98544.06
2023-03-07T06:14:30.867Z,98558.75
2023-03-07T06:16:57.506Z,98556.16
2023-03-07T06:19:24.125Z,98559.59
2023-03-07T06:21:50.772Z,98556.16
2023-03-07T06:24:17.392Z,98558.72
2023-03-07T06:26:44.052Z,98562.16
2023-03-07T06:29:10.651Z,98552.63
2023-03-07T06:31:37.266Z,98555.22
2023-03-07T06:34:03.932Z,98550.00
2023-03-07T06:36:30.578Z,98558.66
2023-03-07T06:38:57.170Z,98554.34
2023-03-07T06:41:23.810Z,98560.41
2023-03-07T06:43:52.510Z,98557.75
2023-03-07T06:46:20.540Z,98555.19
2023-03-07T06:48:47.248Z,98548.28
2023-03-07T06:51:14.079Z,98551.75
2023-03-07T06:53:41.180Z,98551.66
2023-03-07T06:56:07.913Z,98546.34
2023-03-07T06:58:34.651Z,98550.66
2023-03-07T07:01:01.394Z,98559.25
2023-03-07T07:03:28.005Z,98552.28
2023-03-07T07:05:54.643Z,98548.78
2023-03-07T07:08:21.472Z,98526.28
2023-03-07T07:10:48.093Z,98544.34
2023-03-07T07:13:15.191Z,98535.59
2023-03-07T07:15:41.993Z,98540.84
2023-03-07T07:18:12.025Z,98525.19
2023-03-07T07:20:38.738Z,98536.34
2023-03-07T07:23:05.449Z,98541.53
2023-03-07T07:25:32.250Z,98537.09
2023-03-07T07:27:58.970Z,98532.72
2023-03-07T07:30:25.753Z,98534.41
2023-03-07T07:32:52.669Z,98528.31
2023-03-07T07:35:19.397Z,98518.75
2023-03-07T07:37:46.187Z,98529.97
2023-03-07T07:40:13.422Z,98524.84
2023-03-07T07:42:40.312Z,98528.25
2023-03-07T07:45:07.650Z,98531.59
2023-03-07T07:47:34.360Z,98530.75
2023-03-07T07:50:01.066Z,98530.78
2023-03-07T07:52:27.750Z,98533.34
2023-03-07T07:54:54.682Z,98533.34
2023-03-07T07:57:22.736Z,98528.97
2023-03-07T07:59:49.587Z,98535.91
2023-03-07T08:02:16.356Z,98544.56
2023-03-07T08:04:43.199Z,98542.75
2023-03-07T08:07:10.028Z,98540.94
2023-03-07T08:09:37.154Z,98530.31
2023-03-07T08:12:04.138Z,98529.31
2023-03-07T08:14:33.651Z,98527.38
2023-03-07T08:17:01.065Z,98529.91
2023-03-07T08:19:27.880Z,98536.81
2023-03-07T08:21:54.732Z,98532.22
2023-03-07T08:24:29.296Z,98530.41
2023-03-07T08:27:01.931Z,98528.44
2023-03-07T08:29:28.723Z,98531.69
2023-03-07T08:31:55.520Z,98523.66
2023-03-07T08:34:22.236Z,98531.34
2023-03-07T08:36:49.143Z,98531.19
2023-03-07T08:39:15.885Z,98534.31
2023-03-07T08:41:42.682Z,98524.75
2023-03-07T08:44:09.902Z,98515.06
2023-03-07T08:46:36.690Z,98513.03
2023-03-07T08:49:03.365Z,98513.66
2023-03-07T08:51:30.034Z,98506.78
2023-03-07T08:53:57.938Z,98500.63
2023-03-07T08:56:24.589Z,98495.13
2023-03-07T08:58:54.551Z,98494.13
2023-03-07T09:01:21.413Z,98485.22
2023-03-07T09:03:48.236Z,98482.47
2023-03-07T09:06:20.232Z,98479.59
2023-03-07T09:08:50.388Z,98488.94
2023-03-07T09:11:18.116Z,98487.84
2023-03-07T09:13:51.885Z,98488.41
2023-03-07T09:16:20.404Z,98489.13
2023-03-07T09:18:47.088Z,98480.72
2023-03-07T09:21:13.777Z,98471.69
2023-03-07T09:23:40.407Z,98506.34
2023-03-07T09:26:07.088Z,98498.75
2023-03-07T09:28:34.298Z,98494.28
2023-03-07T09:31:07.045Z,98505.44
2023-03-07T09:33:33.761Z,98503.81
2023-03-07T09:36:00.353Z,98504.88
2023-03-07T09:38:26.937Z,98509.47
2023-03-07T09:40:54.317Z,98502.69
2023-03-07T09:43:26.817Z,98506.00
2023-03-07T09:46:14.180Z,98512.50
2023-03-07T09:49:05.180Z,98515.13
2023-03-07T09:51:44.588Z,98507.34
2023-03-07T09:54:20.754Z,98505.41
2023-03-07T09:56:56.767Z,98514.03
2023-03-07T09:59:42.102Z,98513.28
2023-03-07T10:02:26.941Z,98531.50
2023-03-07T10:05:10.293Z,98510.72
2023-03-07T10:07:37.064Z,98502.09
2023-03-07T10:10:12.228Z,98507.53
2023-03-07T10:12:56.954Z,98501.41
2023-03-07T10:15:45.988Z,98511.47
2023-03-07T10:18:27.754Z,98504.00
2023-03-07T10:21:07.783Z,98500.34
2023-03-07T10:23:59.987Z,98497.78
2023-03-07T10:26:42.352Z,98511.63
2023-03-07T10:29:18.612Z,98490.66
2023-03-07T10:31:54.124Z,98493.25
2023-03-07T10:34:27.377Z,98492.38
2023-03-07T10:37:08.794Z,98494.31
2023-03-07T10:39:44.944Z,98490.78
2023-03-07T10:42:12.407Z,98488.78
2023-03-07T10:44:39.794Z,98488.28
2023-03-07T10:47:06.584Z,98483.16
2023-03-07T10:49:37.662Z,98482.25
2023-03-07T10:52:20.223Z,98490.78
2023-03-07T10:54:47.002Z,98485.03
2023-03-07T10:57:16.367Z,98487.72
2023-03-07T10:59:44.826Z,98475.50
2023-03-07T11:02:35.949Z,98477.53
2023-03-07T11:05:04.390Z,98479.47
2023-03-07T11:07:34.454Z,98466.34
2023-03-07T11:10:24.756Z,98472.59
2023-03-07T11:12:51.604Z,98469.75
2023-03-07T11:15:21.692Z,98470.59
2023-03-07T11:17:48.984Z,98462.72
2023-03-07T11:20:21.829Z,98463.47
2023-03-07T11:22:49.233Z,98463.06
2023-03-07T11:25:20.399Z,98454.53
2023-03-07T11:27:53.228Z,98449.03
2023-03-07T11:30:23.557Z,98448.59
2023-03-07T11:33:00.276Z,98435.38
2023-03-07T11:35:58.025Z,98453.69
2023-03-07T11:38:36.817Z,98445.88
2023-03-07T11:41:21.223Z,98440.13
2023-03-07T11:44:17.349Z,98428.81
2023-03-07T11:47:05.640Z,98433.84
2023-03-07T11:49:39.271Z,98434.50
2023-03-07T11:52:39.986Z,98435.91
2023-03-07T11:55:25.392Z,98434.53
2023-03-07T11:58:15.687Z,98434.50
2023-03-07T12:01:11.806Z,98441.28
2023-03-07T12:03:44.538Z,98440.66
2023-03-07T12:06:20.725Z,98441.19
2023-03-07T12:08:59.289Z,98452.06
2023-03-07T12:12:04.328Z,98455.53
2023-03-07T12:14:59.077Z,98459.25
2023-03-07T12:17:33.171Z,98453.75
2023-03-07T12:20:19.216Z,98463.66
2023-03-07T12:23:18.355Z,98471.25
2023-03-07T12:25:49.006Z,98455.69
2023-03-07T12:28:18.937Z,98468.81
2023-03-07T12:31:03.432Z,98447.91
2023-03-07T12:33:47.061Z,98447.66
2023-03-07T12:36:23.477Z,98453.63
2023-03-07T12:38:58.792Z,98456.25
2023-03-07T12:41:44.395Z,98449.06
2023-03-07T12:44:16.981Z,98442.03
2023-03-07T12:46:51.514Z,98450.78
2023-03-07T12:49:37.892Z,98448.25
2023-03-07T12:52:25.517Z,98453.31
2023-03-07T12:54:59.228Z,98450.63
2023-03-07T12:57:30.370Z,98456.09
2023-03-07T12:59:58.776Z,98462.31
2023-03-07T13:02:54.000Z,98459.72
2023-03-07T13:05:21.351Z,98466.81
2023-03-07T13:07:49.487Z,98466.16
2023-03-07T13:10:21.633Z,98457.69
2023-03-07T13:12:49.432Z,98454.41
2023-03-07T13:15:18.909Z,98460.25
2023-03-07T13:17:45.520Z,98447.50
2023-03-07T13:20:14.995Z,98449.72
2023-03-07T13:22:41.562Z,98453.22
2023-03-07T13:25:20.712Z,98445.09
2023-03-07T13:27:51.422Z,98445.41
2023-03-07T13:30:23.405Z,98439.16
2023-03-07T13:32:56.057Z,98437.56
2023-03-07T13:35:29.002Z,98442.84
2023-03-07T13:38:03.776Z,98447.91
2023-03-07T13:40:36.966Z,98434.75
2023-03-07T13:43:05.318Z,98441.63
2023-03-07T13:45:37.918Z,98436.66
2023-03-07T13:48:33.276Z,98442.72
2023-03-07T13:51:02.851Z,98434.84
2023-03-07T13:53:44.061Z,98439.31
2023-03-07T13:56:16.693Z,98440.25
2023-03-07T13:59:10.599Z,98440.25
2023-03-07T14:01:44.403Z,98440.16
2023-03-07T14:04:38.442Z,98447.09
2023-03-07T14:07:28.320Z,98448.94
2023-03-07T14:10:09.823Z,98448.34
2023-03-07T14:12:58.088Z,98443.09
2023-03-07T14:15:49.457Z,98481.53
2023-03-07T14:18:25.753Z,98524.44
2023-03-07T14:21:00.928Z,98520.66
2023-03-07T14:23:51.112Z,98535.91
2023-03-07T14:26:33.972Z,98527.91
2023-03-07T14:29:22.229Z,98503.88
2023-03-07T14:31:59.476Z,98511.03
2023-03-07T14:34:34.332Z,98516.25
2023-03-07T14:37:12.044Z,98511.22
2023-03-07T14:39:59.837Z,98509.41
2023-03-07T14:42:54.026Z,98528.72
2023-03-07T14:45:35.851Z,98516.59
2023-03-07T14:48:24.008Z,98507.00
2023-03-07T14:50:50.916Z,98523.34
2023-03-07T14:53:22.810Z,98523.19
2023-03-07T14:55:52.096Z,98526.47
2023-03-07T14:58:28.836Z,98532.41
2023-03-07T15:01:00.965Z,98526.22
2023-03-07T15:03:28.287Z,98528.78
2023-03-07T15:05:57.350Z,98524.47
2023-03-07T15:08:33.382Z,98527.03
2023-03-07T15:11:04.454Z,98521.66
2023-03-07T15:13:36.484Z,98513.81
2023-03-07T15:16:06.770Z,98506.97
2023-03-07T15:18:41.349Z,98505.06
2023-03-07T15:21:08.653Z,98507.78
2023-03-07T15:23:35.255Z,98514.00
2023-03-07T15:26:10.833Z,98520.75
2023-03-07T15:28:42.919Z,98515.56
2023-03-07T15:31:10.332Z,98521.59
2023-03-07T15:33:37.186Z,98519.84
2023-03-07T15:36:06.834Z,98527.63
2023-03-07T15:38:34.206Z,98525.78
2023-03-07T15:41:00.890Z,98532.00
2023-03-07T15:43:29.437Z,98537.88
2023-03-07T15:46:02.204Z,98534.50
2023-03-07T15:48:48.516Z,98537.84
2023-03-07T15:51:17.746Z,98543.09
2023-03-07T15:53:46.251Z,98543.97
2023-03-07T15:56:36.858Z,98550.91
2023-03-07T15:59:07.216Z,98549.22
2023-03-07T16:01:33.867Z,98553.50
2023-03-07T16:04:03.662Z,98546.69
2023-03-07T16:06:38.032Z,98553.91
2023-03-07T16:09:05.801Z,98546.88
2023-03-07T16:11:33.045Z,98553.09
2023-03-07T16:13:59.801Z,98552.81
2023-03-07T16:16:29.259Z,98556.34
2023-03-07T16:18:59.306Z,98561.63
2023-03-07T16:21:26.536Z,98570.56
2023-03-07T16:23:53.147Z,98554.69
2023-03-07T16:26:22.302Z,98559.19
2023-03-07T16:28:50.006Z,98564.41
2023-03-07T16:31:18.002Z,98561.09
2023-03-07T16:33:45.961Z,98560.06
2023-03-07T16:36:14.006Z,98560.22
2023-03-07T16:38:41.246Z,98572.50
2023-03-07T16:41:19.525Z,98575.13
2023-03-07T16:43:47.603Z,98569.06
2023-03-07T16:46:16.807Z,98572.69
2023-03-07T16:48:44.117Z,98581.34
2023-03-07T16:51:21.867Z,98584.03
2023-03-07T16:53:50.263Z,98580.56
2023-03-07T16:56:25.182Z,98590.16
2023-03-07T16:58:52.193Z,98586.81
2023-03-07T17:01:18.783Z,98587.75
2023-03-07T17:03:45.434Z,98593.91
2023-03-07T17:06:16.614Z,98599.97
2023-03-07T17:08:43.997Z,98600.97
2023-03-07T17:11:24.913Z,98595.00
2023-03-07T17:13:54.648Z,98600.09
2023-03-07T17:16:21.610Z,98607.81
2023-03-07T17:18:48.456Z,98594.13
2023-03-07T17:21:17.302Z,98616.66
2023-03-07T17:23:45.103Z,98614.94
2023-03-07T17:26:27.808Z,98614.91
2023-03-07T17:28:55.118Z,98622.84
2023-03-07T17:31:21.761Z,98622.84
2023-03-07T17:33:49.725Z,98630.69
2023-03-07T17:36:16.547Z,98634.09
2023-03-07T17:38:43.297Z,98642.84
2023-03-07T17:41:09.948Z,98639.38
2023-03-07T17:43:36.552Z,98633.34
2023-03-07T17:46:08.302Z,98641.03
2023-03-07T17:48:35.749Z,98636.81
2023-03-07T17:51:08.009Z,98642.00
2023-03-07T17:53:35.632Z,98643.94
2023-03-07T17:56:10.687Z,98654.97
2023-03-07T17:58:38.519Z,98648.00
2023-03-07T18:01:08.972Z,98652.44
2023-03-07T18:03:35.642Z,98655.06
2023-03-07T18:06:02.208Z,98651.56
2023-03-07T18:08:28.940Z,98657.69
2023-03-07T18:11:02.844Z,98660.28
2023-03-07T18:13:29.432Z,98655.13
2023-03-07T18:15:57.350Z,98659.44
2023-03-07T18:18:24.376Z,98664.53
2023-03-07T18:20:58.441Z,98665.56
2023-03-07T18:23:25.456Z,98664.53
2023-03-07T18:25:59.846Z,98660.31
2023-03-07T18:28:26.502Z,98664.53
2023-03-07T18:31:00.299Z,98667.19
2023-03-07T18:33:28.382Z,98658.56
2023-03-07T18:35:55.789Z,98665.44
2023-03-07T18:38:22.711Z,98672.38
2023-03-07T18:40:49.363Z,98668.88
2023-03-07T18:43:16.246Z,98668.97
2023-03-07T18:45:53.027Z,98674.13
2023-03-07T18:48:19.614Z,98670.66
2023-03-07T18:51:02.263Z,98672.41
2023-03-07T18:53:29.613Z,98675.00
2023-03-07T18:55:56.325Z,98680.38
2023-03-07T18:58:23.303Z,98688.03
2023-03-07T19:00:51.083Z,98685.44
2023-03-07T19:03:17.878Z,98682.81
2023-03-07T19:05:45.846Z,98689.69
2023-03-07T19:08:12.707Z,98688.03
2023-03-07T19:10:39.540Z,98694.09
2023-03-07T19:13:06.807Z,98689.88
2023-03-07T19:15:34.114Z,98696.78
2023-03-07T19:18:00.933Z,98701.16
2023-03-07T19:20:27.756Z,98699.31
2023-03-07T19:22:54.493Z,98701.78
2023-03-07T19:25:21.179Z,98703.56
2023-03-07T19:27:47.901Z,98715.72
2023-03-07T19:30:15.330Z,98711.47
2023-03-07T19:32:42.157Z,98713.13
2023-03-07T19:35:08.827Z,98714.00
2023-03-07T19:37:36.403Z,98731.47
2023-03-07T19:40:03.225Z,98723.66
2023-03-07T19:42:29.828Z,98730.50
2023-03-07T19:44:56.648Z,98720.91
2023-03-07T19:47:23.394Z,98717.63
2023-03-07T19:49:50.242Z,98723.53
2023-03-07T19:52:16.847Z,98727.13
2023-03-07T19:54:45.414Z,98735.78
2023-03-07T19:57:14.975Z,98735.75
2023-03-07T19:59:41.815Z,98736.72
2023-03-07T20:02:10.442Z,98736.69
2023-03-07T20:04:37.035Z,98737.56
2023-03-07T20:07:03.727Z,98736.69
2023-03-07T20:09:30.346Z,98739.34
2023-03-07T20:11:56.957Z,98735.00
2023-03-07T20:14:23.628Z,98745.53
2023-03-07T20:16:50.207Z,98749.78
2023-03-07T20:19:16.971Z,98751.53
2023-03-07T20:21:49.763Z,98757.50
2023-03-07T20:24:18.479Z,98760.13
2023-03-07T20:26:47.002Z,98756.66
2023-03-07T20:29:14.283Z,98757.59
2023-03-07T20:31:40.917Z,98763.56
2023-03-07T20:34:07.602Z,98769.81
2023-03-07T20:36:35.980Z,98767.25
2023-03-07T20:39:07.751Z,98774.09
2023-03-07T20:41:34.659Z,98784.44
2023-03-07T20:44:03.953Z,98783.69
2023-03-07T20:46:31.570Z,98787.19
2023-03-07T20:48:59.722Z,98788.06
2023-03-07T20:51:31.395Z,98784.59
2023-03-07T20:54:00.264Z,98787.16
2023-03-07T20:56:29.007Z,98789.03
2023-03-07T20:58:56.965Z,98794.09
2023-03-07T21:01:25.909Z,98788.22
2023-03-07T21:03:53.958Z,98789.16
2023-03-07T21:06:20.616Z,98802.78
2023-03-07T21:08:47.677Z,98804.69
2023-03-07T21:11:16.220Z,98806.34
2023-03-07T21:13:44.681Z,98815.09
2023-03-07T21:16:17.007Z,98818.53
2023-03-07T21:18:44.046Z,98825.50
2023-03-07T21:21:16.023Z,98828.09
2023-03-07T21:23:43.340Z,98834.97
2023-03-07T21:26:16.561Z,98832.44
2023-03-07T21:28:43.324Z,98835.78
2023-03-07T21:31:13.193Z,98835.84
2023-03-07T21:33:44.646Z,98837.56
2023-03-07T21:36:14.273Z,98839.34
2023-03-07T21:38:41.677Z,98853.25
2023-03-07T21:41:09.090Z,98848.97
2023-03-07T21:43:36.098Z,98862.72
2023-03-07T21:46:04.759Z,98861.03
2023-03-07T21:48:32.049Z,98878.16
2023-03-07T21:50:59.383Z,98870.44
2023-03-07T21:53:26.714Z,98871.25
2023-03-07T21:55:55.154Z,98873.09
2023-03-07T21:58:22.496Z,98879.19
2023-03-07T22:00:52.275Z,98880.09
2023-03-07T22:03:19.282Z,98880.03
2023-03-07T22:05:46.025Z,98886.09
2023-03-07T22:08:13.078Z,98875.72
2023-03-07T22:10:40.007Z,98884.34
2023-03-07T22:13:07.083Z,98889.59
2023-03-07T22:15:34.365Z,98897.41
2023-03-07T22:18:01.115Z,98900.06
2023-03-07T22:20:27.768Z,98908.69
2023-03-07T22:22:54.373Z,98903.56
2023-03-07T22:25:21.160Z,98912.16
2023-03-07T22:27:47.736Z,98911.31
2023-03-07T22:30:14.648Z,98906.16
2023-03-07T22:32:44.576Z,98917.44
2023-03-07T22:35:11.591Z,98927.84
2023-03-07T22:37:38.324Z,98928.72
2023-03-07T22:40:06.201Z,98929.56
2023-03-07T22:42:32.782Z,98933.06
2023-03-07T22:44:59.362Z,98933.94
2023-03-07T22:47:26.157Z,98931.38
2023-03-07T22:49:52.730Z,98934.84
2023-03-07T22:52:19.290Z,98934.00
2023-03-07T22:54:46.203Z,98932.28
2023-03-07T22:57:12.813Z,98934.88
2023-03-07T22:59:39.475Z,98940.97
2023-03-07T23:02:06.282Z,98945.25
2023-03-07T23:04:33.111Z,98945.28
2023-03-07T23:07:02.420Z,98942.69
2023-03-07T23:09:31.416Z,98946.16
2023-03-07T23:11:58.032Z,98940.09
2023-03-07T23:14:24.729Z,98946.16
2023-03-07T23:16:54.378Z,98946.19
2023-03-07T23:19:20.986Z,98945.31
2023-03-07T23:21:47.575Z,98948.75
2023-03-07T23:24:14.160Z,98951.34
2023-03-07T23:26:41.053Z,98953.94
2023-03-07T23:29:10.134Z,98956.53
2023-03-07T23:31:38.781Z,98958.25
2023-03-07T23:34:14.791Z,98958.25
2023-03-07T23:36:41.737Z,98962.56
2023-03-07T23:39:08.503Z,98962.59
2023-03-07T23:41:35.168Z,98962.59
2023-03-07T23:44:02.184Z,98966.91
2023-03-07T23:46:29.578Z,98963.47
2023-03-07T23:48:56.803Z,98968.63
2023-03-07T23:51:23.882Z,98967.78
2023-03-07T23:53:50.655Z,98970.34
2023-03-07T23:56:17.584Z,98979.00
2023-03-07T23:58:44.529Z,98976.38
